sensor_id;sensor_type;location;lat;lon;timestamp;pressure;altitude;pressure_sealevel;temperature;humidity
64916;BME280;51427;-27.442;153.014;2024-03-29T00:00:43;102348.88;;;27.46;64.52
64916;BME280;51427;-27.442;153.014;2024-03-29T00:03:14;102349.56;;;27.05;64.92
64916;BME280;51427;-27.442;153.014;2024-03-29T00:05:41;102338.94;;;26.99;66.84
64916;BME280;51427;-27.442;153.014;2024-03-29T00:08:09;102329.47;;;27.79;64.85
64916;BME280;51427;-27.442;153.014;2024-03-29T00:10:37;102335.50;;;27.02;66.47
64916;BME280;51427;-27.442;153.014;2024-03-29T00:13:05;102318.38;;;28.12;63.91
64916;BME280;51427;-27.442;153.014;2024-03-29T00:15:33;102316.16;;;28.50;61.57
64916;BME280;51427;-27.442;153.014;2024-03-29T00:18:01;102314.69;;;27.79;63.95
64916;BME280;51427;-27.442;153.014;2024-03-29T00:20:28;102315.91;;;27.69;65.01
64916;BME280;51427;-27.442;153.014;2024-03-29T00:22:56;102318.03;;;26.84;65.66
64916;BME280;51427;-27.442;153.014;2024-03-29T00:25:24;102315.16;;;27.01;63.51
64916;BME280;51427;-27.442;153.014;2024-03-29T00:27:51;102306.09;;;26.66;63.46
64916;BME280;51427;-27.442;153.014;2024-03-29T00:30:19;102313.25;;;26.21;65.19
64916;BME280;51427;-27.442;153.014;2024-03-29T00:32:47;102318.81;;;26.21;65.14
64916;BME280;51427;-27.442;153.014;2024-03-29T00:35:14;102319.28;;;26.14;65.41
64916;BME280;51427;-27.442;153.014;2024-03-29T00:37:42;102313.59;;;26.75;63.47
64916;BME280;51427;-27.442;153.014;2024-03-29T00:40:10;102303.84;;;26.98;62.35
64916;BME280;51427;-27.442;153.014;2024-03-29T00:42:38;102302.22;;;26.97;61.78
64916;BME280;51427;-27.442;153.014;2024-03-29T00:45:06;102307.78;;;26.97;62.09
64916;BME280;51427;-27.442;153.014;2024-03-29T00:47:37;102306.09;;;26.66;63.29
64916;BME280;51427;-27.442;153.014;2024-03-29T00:50:05;102304.69;;;27.28;62.71
64916;BME280;51427;-27.442;153.014;2024-03-29T00:52:36;102300.78;;;27.20;60.11
64916;BME280;51427;-27.442;153.014;2024-03-29T00:55:04;102314.19;;;26.97;61.13
64916;BME280;51427;-27.442;153.014;2024-03-29T00:57:32;102303.44;;;27.46;59.64
64916;BME280;51427;-27.442;153.014;2024-03-29T01:00:00;102292.06;;;28.13;58.40
64916;BME280;51427;-27.442;153.014;2024-03-29T01:02:28;102293.00;;;28.17;57.86
64916;BME280;51427;-27.442;153.014;2024-03-29T01:04:55;102283.53;;;28.30;57.38
64916;BME280;51427;-27.442;153.014;2024-03-29T01:07:23;102291.28;;;28.25;57.87
64916;BME280;51427;-27.442;153.014;2024-03-29T01:09:51;102284.06;;;28.24;59.27
64916;BME280;51427;-27.442;153.014;2024-03-29T01:12:19;102284.22;;;27.44;59.31
64916;BME280;51427;-27.442;153.014;2024-03-29T01:14:47;102273.66;;;27.29;60.07
64916;BME280;51427;-27.442;153.014;2024-03-29T01:17:14;102285.59;;;27.38;61.75
64916;BME280;51427;-27.442;153.014;2024-03-29T01:19:42;102275.41;;;27.84;60.77
64916;BME280;51427;-27.442;153.014;2024-03-29T01:22:09;102278.63;;;26.94;62.92
64916;BME280;51427;-27.442;153.014;2024-03-29T01:24:37;102281.84;;;26.67;64.12
64916;BME280;51427;-27.442;153.014;2024-03-29T01:27:05;102278.03;;;26.71;65.32
64916;BME280;51427;-27.442;153.014;2024-03-29T01:29:33;102278.03;;;26.71;64.67
64916;BME280;51427;-27.442;153.014;2024-03-29T01:32:01;102269.31;;;26.82;65.38
64916;BME280;51427;-27.442;153.014;2024-03-29T01:34:28;102278.00;;;26.42;66.05
64916;BME280;51427;-27.442;153.014;2024-03-29T01:36:56;102270.31;;;26.22;66.42
64916;BME280;51427;-27.442;153.014;2024-03-29T01:39:24;102266.06;;;26.16;66.78
64916;BME280;51427;-27.442;153.014;2024-03-29T01:41:56;102264.78;;;25.88;68.93
64916;BME280;51427;-27.442;153.014;2024-03-29T01:44:23;102260.84;;;25.97;70.95
64916;BME280;51427;-27.442;153.014;2024-03-29T01:46:51;102255.09;;;26.11;70.35
64916;BME280;51427;-27.442;153.014;2024-03-29T01:49:19;102249.03;;;26.26;70.65
64916;BME280;51427;-27.442;153.014;2024-03-29T01:51:46;102238.09;;;26.97;67.17
64916;BME280;51427;-27.442;153.014;2024-03-29T01:54:14;102239.31;;;27.37;66.00
64916;BME280;51427;-27.442;153.014;2024-03-29T01:56:43;102242.75;;;26.46;65.32
64916;BME280;51427;-27.442;153.014;2024-03-29T01:59:14;102237.94;;;26.17;67.18
64916;BME280;51427;-27.442;153.014;2024-03-29T02:01:43;102235.91;;;26.35;67.74
64916;BME280;51427;-27.442;153.014;2024-03-29T02:04:12;102232.16;;;26.31;66.22
64916;BME280;51427;-27.442;153.014;2024-03-29T02:06:40;102222.59;;;26.49;66.02
64916;BME280;51427;-27.442;153.014;2024-03-29T02:09:08;102224.00;;;27.02;67.87
64916;BME280;51427;-27.442;153.014;2024-03-29T02:11:36;102206.56;;;27.55;64.68
64916;BME280;51427;-27.442;153.014;2024-03-29T02:14:04;102199.59;;;27.19;63.24
64916;BME280;51427;-27.442;153.014;2024-03-29T02:16:33;102200.53;;;27.44;64.11
64916;BME280;51427;-27.442;153.014;2024-03-29T02:19:01;102202.38;;;26.99;64.01
64916;BME280;51427;-27.442;153.014;2024-03-29T02:21:28;102198.19;;;26.76;63.48
64916;BME280;51427;-27.442;153.014;2024-03-29T02:24:07;102192.63;;;26.84;63.10
64916;BME280;51427;-27.442;153.014;2024-03-29T02:26:35;102197.22;;;26.71;63.65
64916;BME280;51427;-27.442;153.014;2024-03-29T02:29:08;102192.88;;;27.20;63.06
64916;BME280;51427;-27.442;153.014;2024-03-29T02:31:36;102193.38;;;26.93;62.36
64916;BME280;51427;-27.442;153.014;2024-03-29T02:34:04;102191.91;;;27.16;62.63
64916;BME280;51427;-27.442;153.014;2024-03-29T02:36:31;102184.16;;;27.63;59.63
64916;BME280;51427;-27.442;153.014;2024-03-29T02:38:59;102182.66;;;27.25;60.37
64916;BME280;51427;-27.442;153.014;2024-03-29T02:41:27;102181.47;;;27.88;59.39
64916;BME280;51427;-27.442;153.014;2024-03-29T02:43:57;102183.31;;;27.01;61.64
64916;BME280;51427;-27.442;153.014;2024-03-29T02:46:24;102184.41;;;27.08;61.91
64916;BME280;51427;-27.442;153.014;2024-03-29T02:48:52;102181.84;;;26.74;62.46
64916;BME280;51427;-27.442;153.014;2024-03-29T02:51:20;102184.34;;;26.67;62.94
64916;BME280;51427;-27.442;153.014;2024-03-29T02:53:48;102174.59;;;26.82;62.91
64916;BME280;51427;-27.442;153.014;2024-03-29T02:56:15;102169.34;;;26.80;64.34
64916;BME280;51427;-27.442;153.014;2024-03-29T02:58:48;102163.53;;;26.94;63.37
64916;BME280;51427;-27.442;153.014;2024-03-29T03:01:15;102161.97;;;26.84;63.03
64916;BME280;51427;-27.442;153.014;2024-03-29T03:03:44;102158.44;;;26.66;61.61
64916;BME280;51427;-27.442;153.014;2024-03-29T03:06:11;102150.13;;;27.49;60.91
64916;BME280;51427;-27.442;153.014;2024-03-29T03:08:39;102159.81;;;27.31;62.40
64916;BME280;51427;-27.442;153.014;2024-03-29T03:11:24;102150.38;;;27.03;61.62
64916;BME280;51427;-27.442;153.014;2024-03-29T03:13:52;102143.75;;;27.28;61.02
64916;BME280;51427;-27.442;153.014;2024-03-29T03:16:19;102141.03;;;26.99;61.87
64916;BME280;51427;-27.442;153.014;2024-03-29T03:18:47;102130.81;;;27.44;62.67
64916;BME280;51427;-27.442;153.014;2024-03-29T03:21:15;102137.09;;;27.00;62.31
64916;BME280;51427;-27.442;153.014;2024-03-29T03:23:42;102137.84;;;26.80;62.17
64916;BME280;51427;-27.442;153.014;2024-03-29T03:26:10;102123.88;;;27.50;60.12
64916;BME280;51427;-27.442;153.014;2024-03-29T03:28:38;102138.84;;;27.79;60.05
64916;BME280;51427;-27.442;153.014;2024-03-29T03:31:05;102132.00;;;27.88;59.51
64916;BME280;51427;-27.442;153.014;2024-03-29T03:33:34;102126.75;;;28.20;58.75
64916;BME280;51427;-27.442;153.014;2024-03-29T03:36:01;102127.91;;;28.18;58.25
64916;BME280;51427;-27.442;153.014;2024-03-29T03:38:30;102124.78;;;28.44;59.46
64916;BME280;51427;-27.442;153.014;2024-03-29T03:40:58;102119.00;;;27.47;60.85
64916;BME280;51427;-27.442;153.014;2024-03-29T03:43:25;102116.34;;;27.51;60.56
64916;BME280;51427;-27.442;153.014;2024-03-29T03:45:53;102119.03;;;27.06;61.09
64916;BME280;51427;-27.442;153.014;2024-03-29T03:48:21;102105.75;;;27.03;61.21
64916;BME280;51427;-27.442;153.014;2024-03-29T03:50:48;102110.09;;;27.12;62.21
64916;BME280;51427;-27.442;153.014;2024-03-29T03:53:16;102104.13;;;27.02;61.83
64916;BME280;51427;-27.442;153.014;2024-03-29T03:55:43;102107.06;;;26.76;62.16
64916;BME280;51427;-27.442;153.014;2024-03-29T03:58:11;102111.13;;;26.87;63.17
64916;BME280;51427;-27.442;153.014;2024-03-29T04:00:39;102117.56;;;27.00;62.73
64916;BME280;51427;-27.442;153.014;2024-03-29T04:03:06;102110.66;;;26.85;62.84
64916;BME280;51427;-27.442;153.014;2024-03-29T04:05:37;102106.84;;;26.90;63.02
64916;BME280;51427;-27.442;153.014;2024-03-29T04:08:05;102107.47;;;26.95;62.68
64916;BME280;51427;-27.442;153.014;2024-03-29T04:10:37;102107.94;;;26.97;61.28
64916;BME280;51427;-27.442;153.014;2024-03-29T04:13:04;102105.00;;;26.94;64.43
64916;BME280;51427;-27.442;153.014;2024-03-29T04:15:32;102098.34;;;26.86;62.92
64916;BME280;51427;-27.442;153.014;2024-03-29T04:18:00;102098.28;;;26.65;63.01
64916;BME280;51427;-27.442;153.014;2024-03-29T04:20:28;102096.16;;;26.71;63.24
64916;BME280;51427;-27.442;153.014;2024-03-29T04:22:55;102088.41;;;27.18;62.58
64916;BME280;51427;-27.442;153.014;2024-03-29T04:25:23;102096.06;;;27.42;62.84
64916;BME280;51427;-27.442;153.014;2024-03-29T04:27:50;102111.59;;;26.89;62.54
64916;BME280;51427;-27.442;153.014;2024-03-29T04:30:18;102093.63;;;26.78;63.27
64916;BME280;51427;-27.442;153.014;2024-03-29T04:32:46;102100.91;;;26.70;62.53
64916;BME280;51427;-27.442;153.014;2024-03-29T04:35:13;102096.56;;;26.82;63.82
64916;BME280;51427;-27.442;153.014;2024-03-29T04:37:41;102094.63;;;26.53;64.55
64916;BME280;51427;-27.442;153.014;2024-03-29T04:40:09;102098.97;;;26.62;64.46
64916;BME280;51427;-27.442;153.014;2024-03-29T04:42:37;102089.38;;;26.51;64.79
64916;BME280;51427;-27.442;153.014;2024-03-29T04:45:04;102090.06;;;26.69;65.79
64916;BME280;51427;-27.442;153.014;2024-03-29T04:47:32;102096.03;;;26.59;65.20
64916;BME280;51427;-27.442;153.014;2024-03-29T04:50:00;102096.16;;;26.42;65.16
64916;BME280;51427;-27.442;153.014;2024-03-29T04:52:27;102095.22;;;26.29;66.88
64916;BME280;51427;-27.442;153.014;2024-03-29T04:54:55;102093.47;;;26.16;67.77
64916;BME280;51427;-27.442;153.014;2024-03-29T04:57:23;102099.03;;;26.16;67.65
64916;BME280;51427;-27.442;153.014;2024-03-29T04:59:50;102102.56;;;25.96;68.83
64916;BME280;51427;-27.442;153.014;2024-03-29T05:02:18;102093.31;;;26.12;68.90
64916;BME280;51427;-27.442;153.014;2024-03-29T05:04:45;102099.56;;;26.09;68.38
64916;BME280;51427;-27.442;153.014;2024-03-29T05:07:13;102103.63;;;26.12;69.07
64916;BME280;51427;-27.442;153.014;2024-03-29T05:09:41;102116.41;;;25.41;73.30
64916;BME280;51427;-27.442;153.014;2024-03-29T05:12:09;102125.25;;;25.00;76.42
64916;BME280;51427;-27.442;153.014;2024-03-29T05:14:37;102135.41;;;24.48;81.72
64916;BME280;51427;-27.442;153.014;2024-03-29T05:17:04;102138.09;;;23.69;87.52
64916;BME280;51427;-27.442;153.014;2024-03-29T05:19:32;102130.00;;;23.81;88.33
64916;BME280;51427;-27.442;153.014;2024-03-29T05:21:59;102128.50;;;24.06;88.62
64916;BME280;51427;-27.442;153.014;2024-03-29T05:24:27;102130.53;;;24.14;88.60
64916;BME280;51427;-27.442;153.014;2024-03-29T05:26:55;102128.88;;;24.13;89.64
64916;BME280;51427;-27.442;153.014;2024-03-29T05:29:23;102127.47;;;23.93;87.58
64916;BME280;51427;-27.442;153.014;2024-03-29T05:31:50;102130.19;;;23.85;88.53
64916;BME280;51427;-27.442;153.014;2024-03-29T05:34:18;102132.91;;;23.98;87.80
64916;BME280;51427;-27.442;153.014;2024-03-29T05:36:46;102136.78;;;23.97;87.94
64916;BME280;51427;-27.442;153.014;2024-03-29T05:39:13;102135.44;;;23.86;89.28
64916;BME280;51427;-27.442;153.014;2024-03-29T05:41:42;102143.63;;;23.91;87.21
64916;BME280;51427;-27.442;153.014;2024-03-29T05:44:09;102139.16;;;23.82;87.60
64916;BME280;51427;-27.442;153.014;2024-03-29T05:46:37;102136.38;;;23.82;86.69
64916;BME280;51427;-27.442;153.014;2024-03-29T05:49:06;102141.16;;;23.90;85.59
64916;BME280;51427;-27.442;153.014;2024-03-29T05:51:34;102141.81;;;23.95;85.71
64916;BME280;51427;-27.442;153.014;2024-03-29T05:54:02;102150.59;;;23.89;86.21
64916;BME280;51427;-27.442;153.014;2024-03-29T05:56:32;102158.56;;;23.82;85.82
64916;BME280;51427;-27.442;153.014;2024-03-29T05:59:00;102160.84;;;23.79;86.18
64916;BME280;51427;-27.442;153.014;2024-03-29T06:01:27;102150.25;;;23.82;85.22
64916;BME280;51427;-27.442;153.014;2024-03-29T06:03:56;102156.75;;;23.77;85.78
64916;BME280;51427;-27.442;153.014;2024-03-29T06:06:31;102157.63;;;23.86;85.34
64916;BME280;51427;-27.442;153.014;2024-03-29T06:08:59;102164.63;;;23.84;84.71
64916;BME280;51427;-27.442;153.014;2024-03-29T06:11:26;102163.03;;;23.91;85.14
64916;BME280;51427;-27.442;153.014;2024-03-29T06:13:54;102161.44;;;23.99;83.49
64916;BME280;51427;-27.442;153.014;2024-03-29T06:16:25;102167.63;;;23.96;83.77
64916;BME280;51427;-27.442;153.014;2024-03-29T06:19:11;102168.34;;;24.10;82.88
64916;BME280;51427;-27.442;153.014;2024-03-29T06:21:39;102170.28;;;24.09;83.72
64916;BME280;51427;-27.442;153.014;2024-03-29T06:24:11;102176.28;;;24.25;82.46
64916;BME280;51427;-27.442;153.014;2024-03-29T06:26:43;102179.75;;;24.31;81.30
64916;BME280;51427;-27.442;153.014;2024-03-29T06:29:10;102179.31;;;24.37;80.25
64916;BME280;51427;-27.442;153.014;2024-03-29T06:31:38;102184.69;;;24.42;80.23
64916;BME280;51427;-27.442;153.014;2024-03-29T06:34:06;102181.28;;;24.45;78.61
64916;BME280;51427;-27.442;153.014;2024-03-29T06:36:34;102189.59;;;24.45;79.84
64916;BME280;51427;-27.442;153.014;2024-03-29T06:39:02;102177.75;;;24.22;78.99
64916;BME280;51427;-27.442;153.014;2024-03-29T06:41:30;102186.41;;;24.21;79.70
64916;BME280;51427;-27.442;153.014;2024-03-29T06:43:58;102183.63;;;24.21;79.73
64916;BME280;51427;-27.442;153.014;2024-03-29T06:46:26;102192.63;;;24.26;78.43
64916;BME280;51427;-27.442;153.014;2024-03-29T06:48:53;102188.06;;;24.31;79.28
64916;BME280;51427;-27.442;153.014;2024-03-29T06:51:21;102190.81;;;24.22;79.44
64916;BME280;51427;-27.442;153.014;2024-03-29T06:53:49;102187.34;;;24.16;79.75
64916;BME280;51427;-27.442;153.014;2024-03-29T06:56:17;102194.53;;;24.17;79.33
64916;BME280;51427;-27.442;153.014;2024-03-29T06:58:45;102189.69;;;24.23;78.31
64916;BME280;51427;-27.442;153.014;2024-03-29T07:01:12;102196.09;;;24.32;78.63
64916;BME280;51427;-27.442;153.014;2024-03-29T07:03:40;102204.88;;;24.25;78.97
64916;BME280;51427;-27.442;153.014;2024-03-29T07:06:08;102205.88;;;24.30;80.05
64916;BME280;51427;-27.442;153.014;2024-03-29T07:08:36;102210.53;;;24.20;80.28
64916;BME280;51427;-27.442;153.014;2024-03-29T07:11:04;102205.00;;;24.20;79.31
64916;BME280;51427;-27.442;153.014;2024-03-29T07:13:32;102205.50;;;24.22;79.31
64916;BME280;51427;-27.442;153.014;2024-03-29T07:16:00;102217.91;;;24.25;79.53
64916;BME280;51427;-27.442;153.014;2024-03-29T07:18:27;102220.47;;;24.44;78.91
64916;BME280;51427;-27.442;153.014;2024-03-29T07:20:56;102224.16;;;24.31;80.19
64916;BME280;51427;-27.442;153.014;2024-03-29T07:23:23;102223.97;;;24.27;78.81
64916;BME280;51427;-27.442;153.014;2024-03-29T07:26:01;102224.75;;;24.19;79.00
64916;BME280;51427;-27.442;153.014;2024-03-29T07:28:29;102226.91;;;24.31;76.70
64916;BME280;51427;-27.442;153.014;2024-03-29T07:30:57;102223.19;;;24.35;76.35
64916;BME280;51427;-27.442;153.014;2024-03-29T07:33:34;102225.66;;;24.37;76.80
64916;BME280;51427;-27.442;153.014;2024-03-29T07:36:01;102220.25;;;24.32;76.26
64916;BME280;51427;-27.442;153.014;2024-03-29T07:38:31;102221.81;;;24.24;77.53
64916;BME280;51427;-27.442;153.014;2024-03-29T07:40:58;102222.53;;;24.30;76.54
64916;BME280;51427;-27.442;153.014;2024-03-29T07:43:26;102225.75;;;24.23;76.39
64916;BME280;51427;-27.442;153.014;2024-03-29T07:45:53;102229.97;;;24.20;76.44
64916;BME280;51427;-27.442;153.014;2024-03-29T07:48:21;102232.56;;;24.17;77.17
64916;BME280;51427;-27.442;153.014;2024-03-29T07:50:49;102237.81;;;24.18;76.02
64916;BME280;51427;-27.442;153.014;2024-03-29T07:53:16;102230.78;;;24.21;76.26
64916;BME280;51427;-27.442;153.014;2024-03-29T07:55:44;102247.59;;;24.16;76.21
64916;BME280;51427;-27.442;153.014;2024-03-29T07:58:11;102247.19;;;24.09;77.35
64916;BME280;51427;-27.442;153.014;2024-03-29T08:00:40;102242.72;;;23.77;80.02
64916;BME280;51427;-27.442;153.014;2024-03-29T08:03:08;102246.34;;;23.64;81.92
64916;BME280;51427;-27.442;153.014;2024-03-29T08:05:36;102254.91;;;23.54;82.70
64916;BME280;51427;-27.442;153.014;2024-03-29T08:08:04;102276.69;;;23.47;82.87
64916;BME280;51427;-27.442;153.014;2024-03-29T08:10:32;102271.28;;;23.42;83.33
64916;BME280;51427;-27.442;153.014;2024-03-29T08:13:00;102277.19;;;23.35;83.95
64916;BME280;51427;-27.442;153.014;2024-03-29T08:15:28;102287.78;;;23.33;84.05
64916;BME280;51427;-27.442;153.014;2024-03-29T08:17:55;102290.84;;;23.31;84.51
64916;BME280;51427;-27.442;153.014;2024-03-29T08:20:23;102290.97;;;23.26;84.81
64916;BME280;51427;-27.442;153.014;2024-03-29T08:22:59;102294.47;;;23.18;85.07
64916;BME280;51427;-27.442;153.014;2024-03-29T08:25:27;102298.69;;;23.16;85.51
64916;BME280;51427;-27.442;153.014;2024-03-29T08:27:55;102295.38;;;23.14;85.28
64916;BME280;51427;-27.442;153.014;2024-03-29T08:30:26;102306.78;;;23.12;86.36
64916;BME280;51427;-27.442;153.014;2024-03-29T08:32:58;102311.19;;;23.13;86.33
64916;BME280;51427;-27.442;153.014;2024-03-29T08:35:26;102311.59;;;23.07;86.55
64916;BME280;51427;-27.442;153.014;2024-03-29T08:37:54;102309.78;;;23.02;86.38
64916;BME280;51427;-27.442;153.014;2024-03-29T08:40:21;102321.75;;;22.98;87.15
64916;BME280;51427;-27.442;153.014;2024-03-29T08:42:50;102333.25;;;22.77;87.57
64916;BME280;51427;-27.442;153.014;2024-03-29T08:45:18;102320.38;;;22.68;87.72
64916;BME280;51427;-27.442;153.014;2024-03-29T08:47:46;102339.84;;;22.30;87.16
64916;BME280;51427;-27.442;153.014;2024-03-29T08:50:14;102348.66;;;21.76;89.37
64916;BME280;51427;-27.442;153.014;2024-03-29T08:52:41;102341.25;;;21.53;93.21
64916;BME280;51427;-27.442;153.014;2024-03-29T08:55:11;102347.72;;;21.44;93.33
64916;BME280;51427;-27.442;153.014;2024-03-29T08:57:38;102343.16;;;21.34;94.59
64916;BME280;51427;-27.442;153.014;2024-03-29T09:00:08;102349.56;;;21.29;95.61
64916;BME280;51427;-27.442;153.014;2024-03-29T09:02:35;102351.09;;;21.17;96.42
64916;BME280;51427;-27.442;153.014;2024-03-29T09:05:03;102357.81;;;21.11;97.20
64916;BME280;51427;-27.442;153.014;2024-03-29T09:07:31;102362.19;;;21.12;97.91
64916;BME280;51427;-27.442;153.014;2024-03-29T09:10:03;102367.66;;;21.17;98.54
64916;BME280;51427;-27.442;153.014;2024-03-29T09:12:31;102368.28;;;21.09;97.71
64916;BME280;51427;-27.442;153.014;2024-03-29T09:14:58;102370.19;;;21.13;97.83
64916;BME280;51427;-27.442;153.014;2024-03-29T09:17:26;102367.94;;;21.15;97.61
64916;BME280;51427;-27.442;153.014;2024-03-29T09:19:54;102356.81;;;21.25;97.69
64916;BME280;51427;-27.442;153.014;2024-03-29T09:22:22;102362.69;;;21.43;97.79
64916;BME280;51427;-27.442;153.014;2024-03-29T09:24:49;102371.88;;;21.33;97.99
64916;BME280;51427;-27.442;153.014;2024-03-29T09:27:17;102377.00;;;21.45;96.26
64916;BME280;51427;-27.442;153.014;2024-03-29T09:29:48;102367.09;;;21.62;96.63
64916;BME280;51427;-27.442;153.014;2024-03-29T09:32:16;102362.72;;;21.80;95.80
64916;BME280;51427;-27.442;153.014;2024-03-29T09:34:48;102365.19;;;21.81;95.96
64916;BME280;51427;-27.442;153.014;2024-03-29T09:37:15;102376.25;;;21.81;97.04
64916;BME280;51427;-27.442;153.014;2024-03-29T09:39:44;102374.31;;;21.82;96.36
64916;BME280;51427;-27.442;153.014;2024-03-29T09:42:16;102372.72;;;21.76;96.21
64916;BME280;51427;-27.442;153.014;2024-03-29T09:44:44;102375.44;;;21.81;97.02
64916;BME280;51427;-27.442;153.014;2024-03-29T09:47:15;102376.41;;;21.90;96.36
64916;BME280;51427;-27.442;153.014;2024-03-29T09:49:45;102378.91;;;21.92;96.46
64916;BME280;51427;-27.442;153.014;2024-03-29T09:52:16;102378.63;;;21.88;96.79
64916;BME280;51427;-27.442;153.014;2024-03-29T09:54:44;102387.56;;;22.04;96.56
64916;BME280;51427;-27.442;153.014;2024-03-29T09:57:12;102384.13;;;22.12;95.57
64916;BME280;51427;-27.442;153.014;2024-03-29T09:59:40;102388.47;;;21.99;95.16
64916;BME280;51427;-27.442;153.014;2024-03-29T10:02:15;102385.81;;;21.89;95.37
64916;BME280;51427;-27.442;153.014;2024-03-29T10:04:47;102376.75;;;21.83;95.43
64916;BME280;51427;-27.442;153.014;2024-03-29T10:07:16;102394.91;;;21.90;95.74
64916;BME280;51427;-27.442;153.014;2024-03-29T10:09:44;102392.06;;;21.76;96.50
64916;BME280;51427;-27.442;153.014;2024-03-29T10:12:12;102395.22;;;21.88;96.59
64916;BME280;51427;-27.442;153.014;2024-03-29T10:14:49;102387.09;;;21.97;95.78
64916;BME280;51427;-27.442;153.014;2024-03-29T10:17:21;102396.16;;;22.02;96.14
64916;BME280;51427;-27.442;153.014;2024-03-29T10:19:49;102394.50;;;22.01;95.56
64916;BME280;51427;-27.442;153.014;2024-03-29T10:22:17;102385.53;;;21.91;96.08
64916;BME280;51427;-27.442;153.014;2024-03-29T10:24:45;102393.78;;;21.96;96.10
64916;BME280;51427;-27.442;153.014;2024-03-29T10:27:14;102390.47;;;21.94;95.60
64916;BME280;51427;-27.442;153.014;2024-03-29T10:29:42;102392.47;;;21.88;95.60
64916;BME280;51427;-27.442;153.014;2024-03-29T10:32:10;102398.09;;;22.02;95.89
64916;BME280;51427;-27.442;153.014;2024-03-29T10:34:37;102392.47;;;21.88;95.72
64916;BME280;51427;-27.442;153.014;2024-03-29T10:37:05;102398.47;;;21.95;96.01
64916;BME280;51427;-27.442;153.014;2024-03-29T10:39:33;102400.03;;;22.01;95.35
64916;BME280;51427;-27.442;153.014;2024-03-29T10:42:01;102397.44;;;21.86;95.47
64916;BME280;51427;-27.442;153.014;2024-03-29T10:44:33;102392.84;;;21.81;95.43
64916;BME280;51427;-27.442;153.014;2024-03-29T10:47:03;102398.59;;;21.85;95.75
64916;BME280;51427;-27.442;153.014;2024-03-29T10:49:33;102392.72;;;21.92;95.60
64916;BME280;51427;-27.442;153.014;2024-03-29T10:52:01;102391.19;;;21.80;95.96
64916;BME280;51427;-27.442;153.014;2024-03-29T10:54:31;102389.25;;;21.81;96.47
64916;BME280;51427;-27.442;153.014;2024-03-29T10:57:08;102399.31;;;21.96;95.63
64916;BME280;51427;-27.442;153.014;2024-03-29T10:59:54;102401.03;;;21.87;95.80
64916;BME280;51427;-27.442;153.014;2024-03-29T11:05:30;102393.84;;;21.91;97.08
64916;BME280;51427;-27.442;153.014;2024-03-29T11:08:01;102403.78;;;21.92;96.40
64916;BME280;51427;-27.442;153.014;2024-03-29T11:10:40;102407.38;;;21.68;96.77
64916;BME280;51427;-27.442;153.014;2024-03-29T11:15:45;102409.22;;;21.97;96.28
64916;BME280;51427;-27.442;153.014;2024-03-29T11:18:16;102401.59;;;21.89;96.47
64916;BME280;51427;-27.442;153.014;2024-03-29T11:20:47;102402.91;;;21.72;97.33
64916;BME280;51427;-27.442;153.014;2024-03-29T11:23:21;102406.34;;;21.83;97.19
64916;BME280;51427;-27.442;153.014;2024-03-29T11:25:51;102407.16;;;21.83;96.96
64916;BME280;51427;-27.442;153.014;2024-03-29T11:28:27;102407.81;;;21.75;97.57
64916;BME280;51427;-27.442;153.014;2024-03-29T11:31:02;102410.38;;;21.72;97.38
64916;BME280;51427;-27.442;153.014;2024-03-29T11:33:56;102403.72;;;21.73;97.13
64916;BME280;51427;-27.442;153.014;2024-03-29T11:36:21;102401.50;;;21.75;97.13
64916;BME280;51427;-27.442;153.014;2024-03-29T11:38:53;102402.63;;;21.74;97.31
64916;BME280;51427;-27.442;153.014;2024-03-29T11:41:23;102393.44;;;21.78;96.74
64916;BME280;51427;-27.442;153.014;2024-03-29T11:43:51;102391.69;;;21.82;95.96
64916;BME280;51427;-27.442;153.014;2024-03-29T11:46:19;102390.66;;;21.78;96.25
64916;BME280;51427;-27.442;153.014;2024-03-29T11:48:47;102390.44;;;21.75;96.64
64916;BME280;51427;-27.442;153.014;2024-03-29T11:51:20;102384.47;;;21.68;96.84
64916;BME280;51427;-27.442;153.014;2024-03-29T11:53:48;102390.34;;;21.80;97.18
64916;BME280;51427;-27.442;153.014;2024-03-29T11:56:18;102378.19;;;21.81;96.60
64916;BME280;51427;-27.442;153.014;2024-03-29T11:58:47;102390.31;;;21.85;96.24
64916;BME280;51427;-27.442;153.014;2024-03-29T12:01:17;102385.59;;;21.86;96.59
64916;BME280;51427;-27.442;153.014;2024-03-29T12:03:45;102387.00;;;21.83;97.06
64916;BME280;51427;-27.442;153.014;2024-03-29T12:06:14;102400.06;;;21.77;97.47
64916;BME280;51427;-27.442;153.014;2024-03-29T12:08:43;102396.94;;;21.84;97.09
64916;BME280;51427;-27.442;153.014;2024-03-29T12:11:11;102404.03;;;21.71;96.99
64916;BME280;51427;-27.442;153.014;2024-03-29T12:13:39;102403.72;;;21.73;97.67
64916;BME280;51427;-27.442;153.014;2024-03-29T12:16:07;102400.34;;;21.76;97.08
64916;BME280;51427;-27.442;153.014;2024-03-29T12:18:35;102401.56;;;21.70;96.88
64916;BME280;51427;-27.442;153.014;2024-03-29T12:21:02;102397.97;;;21.69;97.20
64916;BME280;51427;-27.442;153.014;2024-03-29T12:23:30;102395.19;;;21.69;97.30
64916;BME280;51427;-27.442;153.014;2024-03-29T12:25:58;102388.38;;;21.62;97.80
64916;BME280;51427;-27.442;153.014;2024-03-29T12:28:27;102389.28;;;21.57;97.30
64916;BME280;51427;-27.442;153.014;2024-03-29T12:30:55;102387.03;;;21.59;97.21
64916;BME280;51427;-27.442;153.014;2024-03-29T12:33:23;102382.84;;;21.62;97.75